sensor_id;sensor_type;location;lat;lon;timestamp;temperature;humidity
18373;DHT22;9313;51.27979100;4.44632000;2022-08-21T00:01:53;14.40;99.90
18373;DHT22;9313;51.27979100;4.44632000;2022-08-21T00:04:20;14.40;99.90
18373;DHT22;9313;51.27979100;4.44632000;2022-08-21T00:06:46;14.40;99.90
18373;DHT22;9313;51.27979100;4.44632000;2022-08-21T00:09:15;14.30;99.90
18373;DHT22;9313;51.27979100;4.44632000;2022-08-21T00:11:41;14.30;99.90
18373;DHT22;9313;51.27979100;4.44632000;2022-08-21T00:14:11;14.40;99.90
18373;DHT22;9313;51.27979100;4.44632000;2022-08-21T00:16:40;14.30;99.90
18373;DHT22;9313;51.27979100;4.44632000;2022-08-21T00:19:07;14.30;99.90
18373;DHT22;9313;51.27979100;4.44632000;2022-08-21T00:21:35;14.30;99.90
18373;DHT22;9313;51.27979100;4.44632000;2022-08-21T00:24:03;14.30;99.90
18373;DHT22;9313;51.27979100;4.44632000;2022-08-21T00:26:32;14.30;99.90
18373;DHT22;9313;51.27979100;4.44632000;2022-08-21T00:28:58;14.20;99.90
18373;DHT22;9313;51.27979100;4.44632000;2022-08-21T00:31:24;14.20;99.90
18373;DHT22;9313;51.27979100;4.44632000;2022-08-21T00:33:51;14.20;99.90
18373;DHT22;9313;51.27979100;4.44632000;2022-08-21T00:36:22;14.20;99.90
18373;DHT22;9313;51.27979100;4.44632000;2022-08-21T00:38:50;14.20;99.90
18373;DHT22;9313;51.27979100;4.44632000;2022-08-21T00:41:20;14.10;99.90
18373;DHT22;9313;51.27979100;4.44632000;2022-08-21T00:43:48;14.10;99.90
18373;DHT22;9313;51.27979100;4.44632000;2022-08-21T00:46:15;14.10;99.90
18373;DHT22;9313;51.27979100;4.44632000;2022-08-21T00:48:44;14.10;99.90
18373;DHT22;9313;51.27979100;4.44632000;2022-08-21T00:51:37;14.00;99.90
18373;DHT22;9313;51.27979100;4.44632000;2022-08-21T00:54:05;14.00;99.90
18373;DHT22;9313;51.27979100;4.44632000;2022-08-21T00:56:31;14.00;99.90
18373;DHT22;9313;51.27979100;4.44632000;2022-08-21T00:58:57;14.00;99.90
18373;DHT22;9313;51.27979100;4.44632000;2022-08-21T01:01:26;13.90;99.90
18373;DHT22;9313;51.27979100;4.44632000;2022-08-21T01:03:59;13.90;99.90
18373;DHT22;9313;51.27979100;4.44632000;2022-08-21T01:06:27;13.80;99.90
18373;DHT22;9313;51.27979100;4.44632000;2022-08-21T01:08:53;13.80;99.90
18373;DHT22;9313;51.27979100;4.44632000;2022-08-21T01:11:22;13.80;99.90
18373;DHT22;9313;51.27979100;4.44632000;2022-08-21T01:13:48;13.80;99.90
18373;DHT22;9313;51.27979100;4.44632000;2022-08-21T01:16:19;13.80;99.90
18373;DHT22;9313;51.27979100;4.44632000;2022-08-21T01:18:47;13.80;99.90
18373;DHT22;9313;51.27979100;4.44632000;2022-08-21T01:21:23;13.70;99.90
18373;DHT22;9313;51.27979100;4.44632000;2022-08-21T01:23:51;13.70;99.90
18373;DHT22;9313;51.27979100;4.44632000;2022-08-21T01:26:22;13.70;99.90
18373;DHT22;9313;51.27979100;4.44632000;2022-08-21T01:31:29;13.60;99.90
18373;DHT22;9313;51.27979100;4.44632000;2022-08-21T01:33:59;13.60;99.90
18373;DHT22;9313;51.27979100;4.44632000;2022-08-21T01:36:28;13.60;99.90
18373;DHT22;9313;51.27979100;4.44632000;2022-08-21T01:38:56;13.60;99.90
18373;DHT22;9313;51.27979100;4.44632000;2022-08-21T01:41:27;13.60;99.90
18373;DHT22;9313;51.27979100;4.44632000;2022-08-21T01:43:52;13.60;99.90
18373;DHT22;9313;51.27979100;4.44632000;2022-08-21T01:46:21;13.50;99.90
18373;DHT22;9313;51.27979100;4.44632000;2022-08-21T01:48:47;13.50;99.90
18373;DHT22;9313;51.27979100;4.44632000;2022-08-21T01:51:15;13.50;99.90
18373;DHT22;9313;51.27979100;4.44632000;2022-08-21T01:53:41;13.50;99.90
18373;DHT22;9313;51.27979100;4.44632000;2022-08-21T01:56:09;13.50;99.90
18373;DHT22;9313;51.27979100;4.44632000;2022-08-21T01:58:38;13.50;99.90
18373;DHT22;9313;51.27979100;4.44632000;2022-08-21T02:01:05;13.50;99.90
18373;DHT22;9313;51.27979100;4.44632000;2022-08-21T02:03:33;13.50;99.90
18373;DHT22;9313;51.27979100;4.44632000;2022-08-21T02:06:03;13.50;99.90
18373;DHT22;9313;51.27979100;4.44632000;2022-08-21T02:08:34;13.40;99.90
18373;DHT22;9313;51.27979100;4.44632000;2022-08-21T02:11:00;13.40;99.90
18373;DHT22;9313;51.27979100;4.44632000;2022-08-21T02:13:28;13.30;99.90
18373;DHT22;9313;51.27979100;4.44632000;2022-08-21T02:15:56;13.40;99.90
18373;DHT22;9313;51.27979100;4.44632000;2022-08-21T02:18:22;13.30;99.90
18373;DHT22;9313;51.27979100;4.44632000;2022-08-21T02:20:49;13.30;99.90
18373;DHT22;9313;51.27979100;4.44632000;2022-08-21T02:23:15;13.30;99.90
18373;DHT22;9313;51.27979100;4.44632000;2022-08-21T02:25:43;13.30;99.90
18373;DHT22;9313;51.27979100;4.44632000;2022-08-21T02:28:14;13.30;99.90
18373;DHT22;9313;51.27979100;4.44632000;2022-08-21T02:30:45;13.40;99.90
18373;DHT22;9313;51.27979100;4.44632000;2022-08-21T02:33:15;13.40;99.90
18373;DHT22;9313;51.27979100;4.44632000;2022-08-21T02:35:42;13.40;99.90
18373;DHT22;9313;51.27979100;4.44632000;2022-08-21T02:38:17;13.40;99.90
18373;DHT22;9313;51.27979100;4.44632000;2022-08-21T02:40:51;13.40;99.90
18373;DHT22;9313;51.27979100;4.44632000;2022-08-21T02:43:23;13.40;99.90
18373;DHT22;9313;51.27979100;4.44632000;2022-08-21T02:45:51;13.30;99.90
18373;DHT22;9313;51.27979100;4.44632000;2022-08-21T02:48:20;13.30;99.90
18373;DHT22;9313;51.27979100;4.44632000;2022-08-21T02:50:56;13.30;99.90
18373;DHT22;9313;51.27979100;4.44632000;2022-08-21T02:53:24;13.30;99.90
18373;DHT22;9313;51.27979100;4.44632000;2022-08-21T02:55:57;13.20;99.90
18373;DHT22;9313;51.27979100;4.44632000;2022-08-21T02:58:27;13.20;99.90
18373;DHT22;9313;51.27979100;4.44632000;2022-08-21T03:00:56;13.20;99.90
18373;DHT22;9313;51.27979100;4.44632000;2022-08-21T03:03:22;13.20;99.90
18373;DHT22;9313;51.27979100;4.44632000;2022-08-21T03:05:51;13.20;99.90
18373;DHT22;9313;51.27979100;4.44632000;2022-08-21T03:08:20;13.20;99.90
18373;DHT22;9313;51.27979100;4.44632000;2022-08-21T03:10:51;13.20;99.90
18373;DHT22;9313;51.27979100;4.44632000;2022-08-21T03:13:19;13.20;99.90
18373;DHT22;9313;51.27979100;4.44632000;2022-08-21T03:15:47;13.30;99.90
18373;DHT22;9313;51.27979100;4.44632000;2022-08-21T03:18:16;13.30;99.90
18373;DHT22;9313;51.27979100;4.44632000;2022-08-21T03:20:46;13.30;99.90
18373;DHT22;9313;51.27979100;4.44632000;2022-08-21T03:23:13;13.30;99.90
18373;DHT22;9313;51.27979100;4.44632000;2022-08-21T03:25:40;13.30;99.90
18373;DHT22;9313;51.27979100;4.44632000;2022-08-21T03:28:20;13.40;99.90
18373;DHT22;9313;51.27979100;4.44632000;2022-08-21T03:30:50;13.40;99.90
18373;DHT22;9313;51.27979100;4.44632000;2022-08-21T03:33:17;13.50;99.90
18373;DHT22;9313;51.27979100;4.44632000;2022-08-21T03:35:48;13.60;99.90
18373;DHT22;9313;51.27979100;4.44632000;2022-08-21T03:38:17;13.60;99.90
18373;DHT22;9313;51.27979100;4.44632000;2022-08-21T03:40:43;13.70;99.90
18373;DHT22;9313;51.27979100;4.44632000;2022-08-21T03:43:09;13.70;99.90
18373;DHT22;9313;51.27979100;4.44632000;2022-08-21T03:45:38;13.70;99.90
18373;DHT22;9313;51.27979100;4.44632000;2022-08-21T03:48:05;13.70;99.90
18373;DHT22;9313;51.27979100;4.44632000;2022-08-21T03:50:41;13.70;99.90
18373;DHT22;9313;51.27979100;4.44632000;2022-08-21T03:53:15;13.70;99.90
18373;DHT22;9313;51.27979100;4.44632000;2022-08-21T03:55:41;13.70;99.90
18373;DHT22;9313;51.27979100;4.44632000;2022-08-21T03:58:07;13.70;99.90
18373;DHT22;9313;51.27979100;4.44632000;2022-08-21T04:00:35;13.70;99.90
18373;DHT22;9313;51.27979100;4.44632000;2022-08-21T04:03:03;13.70;99.90
18373;DHT22;9313;51.27979100;4.44632000;2022-08-21T04:05:31;13.70;99.90
18373;DHT22;9313;51.27979100;4.44632000;2022-08-21T04:08:02;13.70;99.90
18373;DHT22;9313;51.27979100;4.44632000;2022-08-21T04:10:30;13.60;99.90
18373;DHT22;9313;51.27979100;4.44632000;2022-08-21T04:12:56;13.60;99.90
18373;DHT22;9313;51.27979100;4.44632000;2022-08-21T04:15:24;13.60;99.90
18373;DHT22;9313;51.27979100;4.44632000;2022-08-21T04:17:50;13.60;99.90
18373;DHT22;9313;51.27979100;4.44632000;2022-08-21T04:20:19;13.60;99.90
18373;DHT22;9313;51.27979100;4.44632000;2022-08-21T04:22:50;13.60;99.90
18373;DHT22;9313;51.27979100;4.44632000;2022-08-21T04:25:21;13.60;99.90
18373;DHT22;9313;51.27979100;4.44632000;2022-08-21T04:27:50;13.60;99.90
18373;DHT22;9313;51.27979100;4.44632000;2022-08-21T04:30:16;13.60;99.90
18373;DHT22;9313;51.27979100;4.44632000;2022-08-21T04:32:49;13.60;99.90
18373;DHT22;9313;51.27979100;4.44632000;2022-08-21T04:35:18;13.60;99.90
18373;DHT22;9313;51.27979100;4.44632000;2022-08-21T04:37:44;13.60;99.90
18373;DHT22;9313;51.27979100;4.44632000;2022-08-21T04:40:12;13.50;99.90
18373;DHT22;9313;51.27979100;4.44632000;2022-08-21T04:42:47;13.50;99.90
18373;DHT22;9313;51.27979100;4.44632000;2022-08-21T04:47:59;13.50;99.90
18373;DHT22;9313;51.27979100;4.44632000;2022-08-21T04:50:36;13.60;99.90
18373;DHT22;9313;51.27979100;4.44632000;2022-08-21T04:53:08;13.60;99.90
18373;DHT22;9313;51.27979100;4.44632000;2022-08-21T04:55:37;13.60;99.90
18373;DHT22;9313;51.27979100;4.44632000;2022-08-21T04:58:05;13.60;99.90
18373;DHT22;9313;51.27979100;4.44632000;2022-08-21T05:00:35;13.60;99.90
18373;DHT22;9313;51.27979100;4.44632000;2022-08-21T05:03:01;13.60;99.90
18373;DHT22;9313;51.27979100;4.44632000;2022-08-21T05:05:30;13.70;99.90
18373;DHT22;9313;51.27979100;4.44632000;2022-08-21T05:08:03;13.70;99.90
18373;DHT22;9313;51.27979100;4.44632000;2022-08-21T05:10:30;13.70;99.90
18373;DHT22;9313;51.27979100;4.44632000;2022-08-21T05:12:59;13.80;99.90
18373;DHT22;9313;51.27979100;4.44632000;2022-08-21T05:15:27;13.80;99.90
18373;DHT22;9313;51.27979100;4.44632000;2022-08-21T05:17:55;13.90;99.90
18373;DHT22;9313;51.27979100;4.44632000;2022-08-21T07:01:46;17.20;99.90
18373;DHT22;9313;51.27979100;4.44632000;2022-08-21T07:28:56;18.10;99.90
18373;DHT22;9313;51.27979100;4.44632000;2022-08-21T07:31:24;18.20;99.90
18373;DHT22;9313;51.27979100;4.44632000;2022-08-21T07:33:52;18.30;99.90
18373;DHT22;9313;51.27979100;4.44632000;2022-08-21T07:36:18;18.40;99.90
18373;DHT22;9313;51.27979100;4.44632000;2022-08-21T07:38:47;18.50;99.90
18373;DHT22;9313;51.27979100;4.44632000;2022-08-21T07:41:21;18.60;99.90
18373;DHT22;9313;51.27979100;4.44632000;2022-08-21T07:43:48;18.80;99.90
18373;DHT22;9313;51.27979100;4.44632000;2022-08-21T07:46:14;18.90;99.90
18373;DHT22;9313;51.27979100;4.44632000;2022-08-21T07:48:41;19.00;99.90
18373;DHT22;9313;51.27979100;4.44632000;2022-08-21T07:51:10;19.20;99.90
18373;DHT22;9313;51.27979100;4.44632000;2022-08-21T07:53:39;19.30;99.90
18373;DHT22;9313;51.27979100;4.44632000;2022-08-21T07:56:10;19.40;99.90
18373;DHT22;9313;51.27979100;4.44632000;2022-08-21T07:58:39;19.50;99.90
18373;DHT22;9313;51.27979100;4.44632000;2022-08-21T08:01:07;19.60;99.90
18373;DHT22;9313;51.27979100;4.44632000;2022-08-21T08:03:36;19.70;99.90
18373;DHT22;9313;51.27979100;4.44632000;2022-08-21T08:06:04;19.70;99.90
18373;DHT22;9313;51.27979100;4.44632000;2022-08-21T08:08:34;19.80;99.90
18373;DHT22;9313;51.27979100;4.44632000;2022-08-21T08:11:02;19.90;99.90
18373;DHT22;9313;51.27979100;4.44632000;2022-08-21T08:13:31;19.90;99.90
18373;DHT22;9313;51.27979100;4.44632000;2022-08-21T08:16:01;20.10;99.90
18373;DHT22;9313;51.27979100;4.44632000;2022-08-21T08:18:30;20.10;99.90
18373;DHT22;9313;51.27979100;4.44632000;2022-08-21T08:20:56;20.20;99.90
18373;DHT22;9313;51.27979100;4.44632000;2022-08-21T08:23:24;20.20;99.90
18373;DHT22;9313;51.27979100;4.44632000;2022-08-21T08:25:49;20.30;99.90
18373;DHT22;9313;51.27979100;4.44632000;2022-08-21T08:28:15;20.30;99.90
18373;DHT22;9313;51.27979100;4.44632000;2022-08-21T08:30:46;20.30;99.90
18373;DHT22;9313;51.27979100;4.44632000;2022-08-21T08:33:15;20.30;99.90
18373;DHT22;9313;51.27979100;4.44632000;2022-08-21T08:35:51;20.30;99.90
18373;DHT22;9313;51.27979100;4.44632000;2022-08-21T08:38:18;20.40;99.90
18373;DHT22;9313;51.27979100;4.44632000;2022-08-21T08:43:28;20.30;99.90
18373;DHT22;9313;51.27979100;4.44632000;2022-08-21T08:46:01;20.40;99.90
18373;DHT22;9313;51.27979100;4.44632000;2022-08-21T08:48:54;20.50;99.90
18373;DHT22;9313;51.27979100;4.44632000;2022-08-21T08:51:27;20.50;99.90
18373;DHT22;9313;51.27979100;4.44632000;2022-08-21T08:54:00;20.60;99.90
18373;DHT22;9313;51.27979100;4.44632000;2022-08-21T08:56:32;20.60;99.90
18373;DHT22;9313;51.27979100;4.44632000;2022-08-21T08:59:08;20.70;99.90
18373;DHT22;9313;51.27979100;4.44632000;2022-08-21T09:01:37;20.90;99.90
18373;DHT22;9313;51.27979100;4.44632000;2022-08-21T09:04:04;21.00;99.90
18373;DHT22;9313;51.27979100;4.44632000;2022-08-21T09:09:20;21.40;99.90
18373;DHT22;9313;51.27979100;4.44632000;2022-08-21T09:11:52;21.60;99.90
18373;DHT22;9313;51.27979100;4.44632000;2022-08-21T09:14:50;21.90;99.90
18373;DHT22;9313;51.27979100;4.44632000;2022-08-21T09:25:51;22.30;99.90
18373;DHT22;9313;51.27979100;4.44632000;2022-08-21T09:28:22;22.30;99.90
18373;DHT22;9313;51.27979100;4.44632000;2022-08-21T09:30:48;22.30;99.90
18373;DHT22;9313;51.27979100;4.44632000;2022-08-21T09:33:21;22.40;99.90
18373;DHT22;9313;51.27979100;4.44632000;2022-08-21T09:35:53;22.60;99.90
18373;DHT22;9313;51.27979100;4.44632000;2022-08-21T09:38:38;22.90;99.90
18373;DHT22;9313;51.27979100;4.44632000;2022-08-21T09:41:09;23.10;99.90
18373;DHT22;9313;51.27979100;4.44632000;2022-08-21T09:43:38;23.20;99.90
18373;DHT22;9313;51.27979100;4.44632000;2022-08-21T09:46:23;23.30;99.90
18373;DHT22;9313;51.27979100;4.44632000;2022-08-21T09:48:58;23.20;99.90
18373;DHT22;9313;51.27979100;4.44632000;2022-08-21T09:51:34;23.00;99.90
18373;DHT22;9313;51.27979100;4.44632000;2022-08-21T09:56:38;23.10;99.90
18373;DHT22;9313;51.27979100;4.44632000;2022-08-21T09:59:32;23.30;99.90
18373;DHT22;9313;51.27979100;4.44632000;2022-08-21T10:02:15;23.50;99.90
18373;DHT22;9313;51.27979100;4.44632000;2022-08-21T10:04:51;23.60;99.90
18373;DHT22;9313;51.27979100;4.44632000;2022-08-21T10:07:24;23.60;99.90
18373;DHT22;9313;51.27979100;4.44632000;2022-08-21T10:10:22;23.40;99.90
18373;DHT22;9313;51.27979100;4.44632000;2022-08-21T10:21:01;23.60;99.90
18373;DHT22;9313;51.27979100;4.44632000;2022-08-21T10:26:35;24.00;99.90
18373;DHT22;9313;51.27979100;4.44632000;2022-08-21T10:29:14;24.30;99.90
18373;DHT22;9313;51.27979100;4.44632000;2022-08-21T10:31:46;24.50;99.90
18373;DHT22;9313;51.27979100;4.44632000;2022-08-21T10:37:06;25.20;99.90
18373;DHT22;9313;51.27979100;4.44632000;2022-08-21T10:39:36;25.60;99.90
18373;DHT22;9313;51.27979100;4.44632000;2022-08-21T10:47:37;25.70;99.90
18373;DHT22;9313;51.27979100;4.44632000;2022-08-21T10:52:47;25.60;99.90
18373;DHT22;9313;51.27979100;4.44632000;2022-08-21T10:55:43;25.50;99.90
18373;DHT22;9313;51.27979100;4.44632000;2022-08-21T10:58:17;25.70;99.90
18373;DHT22;9313;51.27979100;4.44632000;2022-08-21T11:03:41;26.40;99.90
18373;DHT22;9313;51.27979100;4.44632000;2022-08-21T11:06:22;26.80;99.90
18373;DHT22;9313;51.27979100;4.44632000;2022-08-21T11:08:53;27.60;99.90
18373;DHT22;9313;51.27979100;4.44632000;2022-08-21T11:11:34;27.90;99.90
18373;DHT22;9313;51.27979100;4.44632000;2022-08-21T11:16:44;27.60;99.90
18373;DHT22;9313;51.27979100;4.44632000;2022-08-21T11:19:33;27.70;99.90
18373;DHT22;9313;51.27979100;4.44632000;2022-08-21T11:27:43;27.50;99.90
18373;DHT22;9313;51.27979100;4.44632000;2022-08-21T11:30:11;27.10;99.90
18373;DHT22;9313;51.27979100;4.44632000;2022-08-21T11:35:43;27.10;99.90
18373;DHT22;9313;51.27979100;4.44632000;2022-08-21T11:41:30;27.40;99.90
18373;DHT22;9313;51.27979100;4.44632000;2022-08-21T11:47:15;28.20;99.90
18373;DHT22;9313;51.27979100;4.44632000;2022-08-21T11:49:57;28.50;99.90
18373;DHT22;9313;51.27979100;4.44632000;2022-08-21T11:52:53;28.50;99.90
18373;DHT22;9313;51.27979100;4.44632000;2022-08-21T11:55:39;28.60;99.90
18373;DHT22;9313;51.27979100;4.44632000;2022-08-21T12:00:56;29.10;99.90
18373;DHT22;9313;51.27979100;4.44632000;2022-08-21T12:03:34;28.80;99.90
18373;DHT22;9313;51.27979100;4.44632000;2022-08-21T12:06:11;28.10;99.90
18373;DHT22;9313;51.27979100;4.44632000;2022-08-21T12:08:43;27.60;99.90
18373;DHT22;9313;51.27979100;4.44632000;2022-08-21T12:14:13;26.90;99.90
18373;DHT22;9313;51.27979100;4.44632000;2022-08-21T12:16:45;27.00;99.90
18373;DHT22;9313;51.27979100;4.44632000;2022-08-21T12:22:11;26.50;99.90
18373;DHT22;9313;51.27979100;4.44632000;2022-08-21T12:24:49;26.50;99.90
18373;DHT22;9313;51.27979100;4.44632000;2022-08-21T12:27:29;26.30;99.90
18373;DHT22;9313;51.27979100;4.44632000;2022-08-21T12:29:59;26.20;99.90
18373;DHT22;9313;51.27979100;4.44632000;2022-08-21T12:32:42;26.20;99.90
18373;DHT22;9313;51.27979100;4.44632000;2022-08-21T12:35:18;26.50;99.90
18373;DHT22;9313;51.27979100;4.44632000;2022-08-21T12:37:57;26.40;99.90
18373;DHT22;9313;51.27979100;4.44632000;2022-08-21T12:40:37;26.30;99.90
18373;DHT22;9313;51.27979100;4.44632000;2022-08-21T12:43:05;26.30;99.90
18373;DHT22;9313;51.27979100;4.44632000;2022-08-21T12:45:44;26.60;99.90
18373;DHT22;9313;51.27979100;4.44632000;2022-08-21T12:51:17;27.30;99.90
18373;DHT22;9313;51.27979100;4.44632000;2022-08-21T12:53:56;27.70;99.90
18373;DHT22;9313;51.27979100;4.44632000;2022-08-21T12:56:26;27.80;99.90
18373;DHT22;9313;51.27979100;4.44632000;2022-08-21T13:57:18;27.90;99.90
18373;DHT22;9313;51.27979100;4.44632000;2022-08-21T13:59:49;25.90;99.90
18373;DHT22;9313;51.27979100;4.44632000;2022-08-21T14:02:19;26.20;99.90
18373;DHT22;9313;51.27979100;4.44632000;2022-08-21T14:04:55;26.50;99.90
18373;DHT22;9313;51.27979100;4.44632000;2022-08-21T14:07:43;26.80;99.90
18373;DHT22;9313;51.27979100;4.44632000;2022-08-21T14:10:22;27.20;99.90
18373;DHT22;9313;51.27979100;4.44632000;2022-08-21T14:12:55;27.40;99.90
18373;DHT22;9313;51.27979100;4.44632000;2022-08-21T14:15:27;27.50;99.90
18373;DHT22;9313;51.27979100;4.44632000;2022-08-21T14:18:06;27.40;99.90
18373;DHT22;9313;51.27979100;4.44632000;2022-08-21T14:20:34;26.80;99.90
18373;DHT22;9313;51.27979100;4.44632000;2022-08-21T14:23:03;26.40;99.90
18373;DHT22;9313;51.27979100;4.44632000;2022-08-21T14:25:41;26.20;99.90
18373;DHT22;9313;51.27979100;4.44632000;2022-08-21T14:28:23;26.20;99.90
18373;DHT22;9313;51.27979100;4.44632000;2022-08-21T14:30:52;26.40;99.90
18373;DHT22;9313;51.27979100;4.44632000;2022-08-21T14:33:29;26.50;99.90
18373;DHT22;9313;51.27979100;4.44632000;2022-08-21T14:35:56;26.60;99.90
18373;DHT22;9313;51.27979100;4.44632000;2022-08-21T14:38:26;26.90;99.90
18373;DHT22;9313;51.27979100;4.44632000;2022-08-21T14:41:04;27.40;99.90
18373;DHT22;9313;51.27979100;4.44632000;2022-08-21T14:43:35;27.80;99.90
18373;DHT22;9313;51.27979100;4.44632000;2022-08-21T14:46:02;28.20;99.90
18373;DHT22;9313;51.27979100;4.44632000;2022-08-21T14:48:30;28.40;99.90
18373;DHT22;9313;51.27979100;4.44632000;2022-08-21T14:51:03;28.60;99.90
18373;DHT22;9313;51.27979100;4.44632000;2022-08-21T14:53:31;28.70;99.90
18373;DHT22;9313;51.27979100;4.44632000;2022-08-21T14:56:00;28.60;99.90
18373;DHT22;9313;51.27979100;4.44632000;2022-08-21T14:58:40;28.10;99.90
18373;DHT22;9313;51.27979100;4.44632000;2022-08-21T15:01:10;27.70;99.90
18373;DHT22;9313;51.27979100;4.44632000;2022-08-21T15:03:39;27.30;99.90
18373;DHT22;9313;51.27979100;4.44632000;2022-08-21T15:06:06;27.10;99.90
18373;DHT22;9313;51.27979100;4.44632000;2022-08-21T15:08:32;26.90;99.90
18373;DHT22;9313;51.27979100;4.44632000;2022-08-21T15:11:03;26.70;99.90
18373;DHT22;9313;51.27979100;4.44632000;2022-08-21T15:13:29;26.50;99.90
18373;DHT22;9313;51.27979100;4.44632000;2022-08-21T15:15:56;26.20;99.90
18373;DHT22;9313;51.27979100;4.44632000;2022-08-21T15:18:28;26.00;99.90
18373;DHT22;9313;51.27979100;4.44632000;2022-08-21T15:20:54;25.90;99.90
18373;DHT22;9313;51.27979100;4.44632000;2022-08-21T15:23:21;25.70;99.90
18373;DHT22;9313;51.27979100;4.44632000;2022-08-21T15:25:48;25.60;99.90
18373;DHT22;9313;51.27979100;4.44632000;2022-08-21T15:28:16;25.50;99.90
18373;DHT22;9313;51.27979100;4.44632000;2022-08-21T15:30:46;25.50;99.90
18373;DHT22;9313;51.27979100;4.44632000;2022-08-21T15:33:15;25.50;99.90
18373;DHT22;9313;51.27979100;4.44632000;2022-08-21T15:35:42;25.60;99.90
18373;DHT22;9313;51.27979100;4.44632000;2022-08-21T15:38:11;25.60;99.90
18373;DHT22;9313;51.27979100;4.44632000;2022-08-21T15:40:42;25.70;99.90
18373;DHT22;9313;51.27979100;4.44632000;2022-08-21T15:43:25;25.70;99.90
18373;DHT22;9313;51.27979100;4.44632000;2022-08-21T15:45:54;25.70;99.90
18373;DHT22;9313;51.27979100;4.44632000;2022-08-21T15:48:20;25.70;99.90
18373;DHT22;9313;51.27979100;4.44632000;2022-08-21T15:50:48;25.60;99.90
18373;DHT22;9313;51.27979100;4.44632000;2022-08-21T15:53:14;25.60;99.90
18373;DHT22;9313;51.27979100;4.44632000;2022-08-21T15:55:40;25.50;99.90
18373;DHT22;9313;51.27979100;4.44632000;2022-08-21T15:58:06;25.40;99.90
18373;DHT22;9313;51.27979100;4.44632000;2022-08-21T16:00:35;25.20;99.90
18373;DHT22;9313;51.27979100;4.44632000;2022-08-21T16:03:04;25.10;99.90
18373;DHT22;9313;51.27979100;4.44632000;2022-08-21T16:05:30;25.00;99.90
18373;DHT22;9313;51.27979100;4.44632000;2022-08-21T16:08:03;24.90;99.90
18373;DHT22;9313;51.27979100;4.44632000;2022-08-21T16:10:29;24.80;99.90
18373;DHT22;9313;51.27979100;4.44632000;2022-08-21T16:13:04;24.80;99.90
18373;DHT22;9313;51.27979100;4.44632000;2022-08-21T16:15:36;24.60;99.90
18373;DHT22;9313;51.27979100;4.44632000;2022-08-21T16:18:04;24.60;99.90
18373;DHT22;9313;51.27979100;4.44632000;2022-08-21T16:20:31;24.50;99.90
18373;DHT22;9313;51.27979100;4.44632000;2022-08-21T16:23:02;24.40;99.90
18373;DHT22;9313;51.27979100;4.44632000;2022-08-21T16:25:30;24.30;99.90
18373;DHT22;9313;51.27979100;4.44632000;2022-08-21T16:28:01;24.20;99.90
18373;DHT22;9313;51.27979100;4.44632000;2022-08-21T16:30:28;24.10;99.90
18373;DHT22;9313;51.27979100;4.44632000;2022-08-21T16:32:58;24.10;99.90
18373;DHT22;9313;51.27979100;4.44632000;2022-08-21T16:35:24;23.90;99.90
18373;DHT22;9313;51.27979100;4.44632000;2022-08-21T16:37:52;23.90;99.90
18373;DHT22;9313;51.27979100;4.44632000;2022-08-21T16:40:22;23.80;99.90
18373;DHT22;9313;51.27979100;4.44632000;2022-08-21T16:42:52;23.70;99.90
18373;DHT22;9313;51.27979100;4.44632000;2022-08-21T16:45:23;23.60;99.90
18373;DHT22;9313;51.27979100;4.44632000;2022-08-21T16:47:50;23.60;99.90
18373;DHT22;9313;51.27979100;4.44632000;2022-08-21T16:50:23;23.90;99.90
18373;DHT22;9313;51.27979100;4.44632000;2022-08-21T16:52:51;24.40;99.90
18373;DHT22;9313;51.27979100;4.44632000;2022-08-21T16:55:19;24.40;99.90
18373;DHT22;9313;51.27979100;4.44632000;2022-08-21T16:57:47;24.30;99.90
18373;DHT22;9313;51.27979100;4.44632000;2022-08-21T17:00:16;24.10;99.90
18373;DHT22;9313;51.27979100;4.44632000;2022-08-21T17:02:45;24.00;99.90
18373;DHT22;9313;51.27979100;4.44632000;2022-08-21T17:05:17;24.20;99.90
18373;DHT22;9313;51.27979100;4.44632000;2022-08-21T17:07:45;24.40;99.90
18373;DHT22;9313;51.27979100;4.44632000;2022-08-21T17:10:15;24.40;99.90
18373;DHT22;9313;51.27979100;4.44632000;2022-08-21T17:12:43;24.30;99.90
18373;DHT22;9313;51.27979100;4.44632000;2022-08-21T17:15:23;24.30;99.90
18373;DHT22;9313;51.27979100;4.44632000;2022-08-21T17:17:49;24.20;99.90
18373;DHT22;9313;51.27979100;4.44632000;2022-08-21T17:20:19;24.20;99.90
18373;DHT22;9313;51.27979100;4.44632000;2022-08-21T17:22:45;24.10;99.90
18373;DHT22;9313;51.27979100;4.44632000;2022-08-21T17:25:14;24.10;99.90
18373;DHT22;9313;51.27979100;4.44632000;2022-08-21T17:27:40;24.10;99.90
18373;DHT22;9313;51.27979100;4.44632000;2022-08-21T17:30:10;24.10;99.90
18373;DHT22;9313;51.27979100;4.44632000;2022-08-21T17:32:37;24.00;99.90
18373;DHT22;9313;51.27979100;4.44632000;2022-08-21T17:35:06;23.90;99.90
18373;DHT22;9313;51.27979100;4.44632000;2022-08-21T17:37:32;23.90;99.90
18373;DHT22;9313;51.27979100;4.44632000;2022-08-21T17:40:01;23.80;99.90
18373;DHT22;9313;51.27979100;4.44632000;2022-08-21T17:42:30;23.60;99.90
18373;DHT22;9313;51.27979100;4.44632000;2022-08-21T17:44:56;23.50;99.90
18373;DHT22;9313;51.27979100;4.44632000;2022-08-21T17:47:24;23.30;99.90
18373;DHT22;9313;51.27979100;4.44632000;2022-08-21T17:49:52;23.10;99.90
18373;DHT22;9313;51.27979100;4.44632000;2022-08-21T17:52:17;22.90;99.90
18373;DHT22;9313;51.27979100;4.44632000;2022-08-21T17:54:45;22.70;99.90
18373;DHT22;9313;51.27979100;4.44632000;2022-08-21T17:57:19;22.40;99.90
18373;DHT22;9313;51.27979100;4.44632000;2022-08-21T17:59:51;22.20;99.90
18373;DHT22;9313;51.27979100;4.44632000;2022-08-21T18:02:19;22.00;99.90
18373;DHT22;9313;51.27979100;4.44632000;2022-08-21T18:04:47;21.90;99.90
18373;DHT22;9313;51.27979100;4.44632000;2022-08-21T18:07:18;21.70;99.90
18373;DHT22;9313;51.27979100;4.44632000;2022-08-21T18:09:44;21.50;99.90
18373;DHT22;9313;51.27979100;4.44632000;2022-08-21T18:12:11;21.40;99.90
18373;DHT22;9313;51.27979100;4.44632000;2022-08-21T18:14:38;21.30;99.90